Impacts TAF Board
For situational awareness. Not to be used for flight planning purposes.
IDs:

KGJT - Grand Junction Rgnl, CO, US

Issued at 2328 UTC 04 Jul 2022
Updated at 0039 UTC 05 Jul 2022
Potential Impact None Slight Moderate High
Time<<05/13Z 05/14Z 05/15Z 05/16Z 05/17Z 05/18Z 05/19Z 05/20Z 05/21Z 05/22Z 05/23Z 06/00Z 06/01Z>>
Type PRVL PRVL PRVL PRVL PRVL PRVL PRVL PRVL PRVL PRVL PRVL
VIS >6 >6 >6 >6 >6 >6 >6 >6 >6 >6 >6
CIG -- -- -- -- -- -- 100 100 100 100 100
Cover SCT SCT SCT SCT SCT SCT BKN BKN BKN BKN BKN
FltCat VFR VFR VFR VFR VFR VFR VFR VFR VFR VFR VFR
WX -- -- -- -- -- -- -- -- -- -- --
WDir 110 110 150 150 150 150 250 250 250 250 250
WSpd 10 10 9 9 9 9 7 7 7 7 7
WGst -- -- -- -- -- -- -- -- -- -- --
WSHgt -- -- -- -- -- -- -- -- -- -- --
WSDir -- -- -- -- -- -- -- -- -- -- --
WSSpd -- -- -- -- -- -- -- -- -- -- --
Raw TAF
KGJT 042328Z 0500/0524 29006KT P6SM SCT110
  FM050300 07005KT P6SM FEW120
  FM050600 11010KT P6SM SCT250
  FM051500 15009KT P6SM SCT250
  FM051900 25007KT P6SM SCT090 BKN100


METAR Board
Radar Display
Forecast Discussion
For situational awareness. Not to be used for flight planning purposes.